createdAt,value
2023-05-22T00:00:07.588Z,17.83
2023-05-22T00:02:43.187Z,17.83
2023-05-22T00:05:12.582Z,17.83
2023-05-22T00:07:40.387Z,17.82
2023-05-22T00:10:07.559Z,17.74
2023-05-22T00:12:39.694Z,17.82
2023-05-22T00:15:07.049Z,17.65
2023-05-22T00:17:34.342Z,17.82
2023-05-22T00:20:08.319Z,17.87
2023-05-22T00:22:39.548Z,17.88
2023-05-22T00:25:07.938Z,18.02
2023-05-22T00:27:39.929Z,18.15
2023-05-22T00:30:08.776Z,18.07
2023-05-22T00:32:36.058Z,18.13
2023-05-22T00:35:03.564Z,18.17
2023-05-22T00:37:30.327Z,18.11
2023-05-22T00:39:56.910Z,17.93
2023-05-22T00:42:25.677Z,17.70
2023-05-22T00:44:52.206Z,17.73
2023-05-22T00:47:18.920Z,17.96
2023-05-22T00:49:50.776Z,17.78
2023-05-22T00:52:22.837Z,17.78
2023-05-22T00:54:50.848Z,17.79
2023-05-22T00:57:22.128Z,17.72
2023-05-22T00:59:49.247Z,17.88
2023-05-22T01:02:16.779Z,17.82
2023-05-22T01:04:48.753Z,17.87
2023-05-22T01:07:18.781Z,17.93
2023-05-22T01:09:45.473Z,17.74
2023-05-22T01:12:42.726Z,17.55
2023-05-22T01:15:09.301Z,17.55
2023-05-22T01:17:46.388Z,17.73
2023-05-22T01:20:33.997Z,17.73
2023-05-22T01:23:40.612Z,17.66
2023-05-22T01:26:13.959Z,17.44
2023-05-22T01:28:57.130Z,17.46
2023-05-22T01:31:31.474Z,17.54
2023-05-22T01:34:04.838Z,17.52
2023-05-22T01:36:37.121Z,17.60
2023-05-22T01:39:06.384Z,17.56
2023-05-22T01:41:34.275Z,17.65
2023-05-22T01:44:01.987Z,17.76
2023-05-22T01:46:30.287Z,17.65
2023-05-22T01:48:57.797Z,17.61
2023-05-22T01:51:32.465Z,17.49
2023-05-22T01:54:32.890Z,17.54
2023-05-22T01:57:16.625Z,17.60
2023-05-22T01:59:59.592Z,17.68
2023-05-22T02:02:27.728Z,17.67
2023-05-22T02:05:00.798Z,17.69
2023-05-22T02:07:29.094Z,17.81
2023-05-22T02:09:59.704Z,17.48
2023-05-22T02:12:26.906Z,17.53
2023-05-22T02:14:54.138Z,17.66
2023-05-22T02:17:26.158Z,17.42
2023-05-22T02:19:52.859Z,17.25
2023-05-22T02:22:21.904Z,17.27
2023-05-22T02:24:53.212Z,17.27
2023-05-22T02:27:20.018Z,17.23
2023-05-22T02:29:51.502Z,17.22
2023-05-22T02:32:18.098Z,17.34
2023-05-22T02:34:48.317Z,17.22
2023-05-22T02:37:16.057Z,17.36
2023-05-22T02:39:42.610Z,17.32
2023-05-22T02:42:09.348Z,17.34
2023-05-22T02:44:38.204Z,17.42
2023-05-22T02:47:04.844Z,17.48
2023-05-22T02:49:31.537Z,17.04
2023-05-22T02:51:58.141Z,17.08
2023-05-22T02:54:27.473Z,17.09
2023-05-22T02:56:54.162Z,17.13
2023-05-22T02:59:20.777Z,17.18
2023-05-22T03:01:48.544Z,17.31
2023-05-22T03:04:17.459Z,17.08
2023-05-22T03:06:46.380Z,17.06
2023-05-22T03:09:13.026Z,17.00
2023-05-22T03:11:41.984Z,17.00
2023-05-22T03:14:08.643Z,17.10
2023-05-22T03:16:35.279Z,16.99
2023-05-22T03:19:11.638Z,17.02
2023-05-22T03:21:38.735Z,17.06
2023-05-22T03:24:05.843Z,17.09
2023-05-22T03:26:34.857Z,17.03
2023-05-22T03:29:01.546Z,17.03
2023-05-22T03:31:31.477Z,17.08
2023-05-22T03:34:03.722Z,17.03
2023-05-22T03:36:35.956Z,17.00
2023-05-22T03:39:05.387Z,16.90
2023-05-22T03:41:32.067Z,17.06
2023-05-22T03:44:03.879Z,16.99
2023-05-22T03:46:30.525Z,17.08
2023-05-22T03:48:57.191Z,17.11
2023-05-22T03:51:23.979Z,17.12
2023-05-22T03:53:52.887Z,17.18
2023-05-22T03:56:21.806Z,17.25
2023-05-22T03:58:48.884Z,17.22
2023-05-22T04:01:16.913Z,17.16
2023-05-22T04:03:43.775Z,17.23
2023-05-22T04:06:13.760Z,17.25
2023-05-22T04:08:40.460Z,17.25
2023-05-22T04:11:07.035Z,17.29
2023-05-22T04:13:33.584Z,17.37
2023-05-22T04:16:02.089Z,17.32
2023-05-22T04:18:28.980Z,17.42
2023-05-22T04:20:55.961Z,17.36
2023-05-22T04:23:22.777Z,17.31
2023-05-22T04:25:49.740Z,17.51
2023-05-22T04:28:17.709Z,17.42
2023-05-22T04:30:47.108Z,17.34
2023-05-22T04:33:13.781Z,17.40
2023-05-22T04:35:44.331Z,17.37
2023-05-22T04:38:13.287Z,17.36
2023-05-22T04:40:40.068Z,17.39
2023-05-22T04:43:09.115Z,17.35
2023-05-22T04:45:42.328Z,17.34
2023-05-22T04:48:12.025Z,17.38
2023-05-22T04:50:39.046Z,17.53
2023-05-22T04:53:08.109Z,17.73
2023-05-22T04:55:34.722Z,17.85
2023-05-22T04:58:01.588Z,17.78
2023-05-22T05:00:28.999Z,17.85
2023-05-22T05:02:57.488Z,17.91
2023-05-22T05:05:24.377Z,17.93
2023-05-22T05:07:51.760Z,18.07
2023-05-22T05:10:18.619Z,18.12
2023-05-22T05:12:45.580Z,18.32
2023-05-22T05:15:12.371Z,18.38
2023-05-22T05:17:43.555Z,18.57
2023-05-22T05:20:14.619Z,18.73
2023-05-22T05:22:41.390Z,18.74
2023-05-22T05:25:09.594Z,18.61
2023-05-22T05:27:38.180Z,18.69
2023-05-22T05:30:05.298Z,18.82
2023-05-22T05:32:31.954Z,18.84
2023-05-22T05:34:58.677Z,18.68
2023-05-22T05:37:26.112Z,18.57
2023-05-22T05:39:57.507Z,18.74
2023-05-22T05:42:24.124Z,18.86
2023-05-22T05:44:53.139Z,19.13
2023-05-22T05:47:19.793Z,19.34
2023-05-22T05:49:49.484Z,19.47
2023-05-22T05:52:16.090Z,19.55
2023-05-22T05:54:49.416Z,19.34
2023-05-22T05:57:16.549Z,19.50
2023-05-22T05:59:43.149Z,19.49
2023-05-22T06:02:12.857Z,19.07
2023-05-22T06:04:39.630Z,19.26
2023-05-22T06:07:09.260Z,19.11
2023-05-22T06:09:36.313Z,19.02
2023-05-22T06:12:05.239Z,18.99
2023-05-22T06:14:31.873Z,18.90
2023-05-22T06:17:01.964Z,19.16
2023-05-22T06:19:31.696Z,19.42
2023-05-22T06:21:58.398Z,19.66
2023-05-22T06:24:25.004Z,19.71
2023-05-22T06:26:56.400Z,19.95
2023-05-22T06:29:23.185Z,19.63
2023-05-22T06:31:52.326Z,19.50
2023-05-22T06:34:19.045Z,19.69
2023-05-22T06:36:46.040Z,19.59
2023-05-22T06:39:12.691Z,19.21
2023-05-22T06:41:39.255Z,19.48
2023-05-22T06:44:08.410Z,19.73
2023-05-22T06:46:35.379Z,20.00
2023-05-22T06:49:05.061Z,20.09
2023-05-22T06:51:34.313Z,20.20
2023-05-22T06:54:01.132Z,20.33
2023-05-22T06:56:30.952Z,20.43
2023-05-22T06:58:59.965Z,20.53
2023-05-22T07:01:26.944Z,20.45
2023-05-22T07:03:53.630Z,20.43
2023-05-22T07:06:20.406Z,20.50
2023-05-22T07:08:49.243Z,20.53
2023-05-22T07:11:15.679Z,20.58
2023-05-22T07:13:44.832Z,20.73
2023-05-22T07:16:11.520Z,20.87
2023-05-22T07:18:40.111Z,21.18
2023-05-22T07:21:06.753Z,21.31
2023-05-22T07:23:35.704Z,21.28
2023-05-22T07:26:04.416Z,21.31
2023-05-22T07:28:33.517Z,21.20
2023-05-22T07:31:00.396Z,21.07
2023-05-22T07:33:31.814Z,21.04
2023-05-22T07:35:58.405Z,21.24
2023-05-22T07:38:25.013Z,21.15
2023-05-22T07:40:51.630Z,21.06
2023-05-22T07:43:18.339Z,20.99
2023-05-22T07:45:47.136Z,20.98
2023-05-22T07:48:13.791Z,21.05
2023-05-22T07:50:45.496Z,21.19
2023-05-22T07:53:14.963Z,21.28
2023-05-22T07:55:42.266Z,21.34
2023-05-22T07:58:10.857Z,21.25
2023-05-22T08:00:39.802Z,21.28
2023-05-22T08:03:12.387Z,21.27
2023-05-22T08:05:39.163Z,21.09
2023-05-22T08:08:10.343Z,21.12
2023-05-22T08:10:47.212Z,21.11
2023-05-22T08:13:23.784Z,21.24
2023-05-22T08:15:50.626Z,21.39
2023-05-22T08:18:29.163Z,21.48
2023-05-22T08:20:56.049Z,21.59
2023-05-22T08:23:25.029Z,21.54
2023-05-22T08:25:57.506Z,21.67
2023-05-22T08:28:24.239Z,21.86
2023-05-22T08:30:51.024Z,21.85
2023-05-22T08:33:17.761Z,21.86
2023-05-22T08:35:46.923Z,21.86
2023-05-22T08:38:18.332Z,21.74
2023-05-22T08:40:48.869Z,21.98
2023-05-22T08:43:15.936Z,22.02
2023-05-22T08:45:43.834Z,22.17
2023-05-22T08:48:14.716Z,22.28
2023-05-22T08:50:43.581Z,22.31
2023-05-22T08:53:15.723Z,22.26
2023-05-22T08:55:42.654Z,22.33
2023-05-22T08:58:14.387Z,22.41
2023-05-22T09:00:41.862Z,22.34
2023-05-22T09:03:13.994Z,22.43
2023-05-22T09:05:41.442Z,22.57
2023-05-22T09:08:18.975Z,22.78
2023-05-22T09:10:46.970Z,22.78
2023-05-22T09:13:30.552Z,22.71
2023-05-22T09:16:07.554Z,22.91
2023-05-22T09:18:34.226Z,22.89
2023-05-22T09:21:03.745Z,22.86
2023-05-22T09:23:33.708Z,23.18
2023-05-22T09:26:02.686Z,23.48
2023-05-22T09:28:37.028Z,23.34
2023-05-22T09:31:04.723Z,23.51
2023-05-22T09:33:34.549Z,23.38
2023-05-22T09:36:01.608Z,23.58
2023-05-22T09:38:30.094Z,23.73
2023-05-22T09:40:57.221Z,23.82
2023-05-22T09:43:28.728Z,23.85
2023-05-22T09:46:04.738Z,23.98
2023-05-22T09:48:38.179Z,23.43
2023-05-22T09:51:08.600Z,23.38
2023-05-22T09:53:38.289Z,23.94
2023-05-22T09:56:10.952Z,24.08
2023-05-22T09:58:43.243Z,24.12
2023-05-22T10:01:13.873Z,24.37
2023-05-22T10:03:43.102Z,24.34
2023-05-22T10:06:12.336Z,24.46
2023-05-22T10:08:44.125Z,24.48
2023-05-22T10:11:13.723Z,23.98
2023-05-22T10:13:43.502Z,24.33
2023-05-22T10:16:16.362Z,24.52
2023-05-22T10:18:49.149Z,24.83
2023-05-22T10:21:18.654Z,24.83
2023-05-22T10:23:45.759Z,24.80
2023-05-22T10:26:16.527Z,24.90
2023-05-22T10:28:48.462Z,25.01
2023-05-22T10:31:20.486Z,25.04
2023-05-22T10:33:59.531Z,25.01
2023-05-22T10:36:51.284Z,25.01
2023-05-22T10:39:32.753Z,25.23
2023-05-22T10:41:59.428Z,24.89
2023-05-22T10:44:30.635Z,24.99
2023-05-22T10:47:10.201Z,25.44
2023-05-22T10:49:44.305Z,25.48
2023-05-22T10:52:14.847Z,25.28
2023-05-22T10:54:53.524Z,25.65
2023-05-22T10:57:20.884Z,25.91
2023-05-22T10:59:47.909Z,25.83
2023-05-22T11:02:31.331Z,25.67
2023-05-22T11:05:25.868Z,25.69
2023-05-22T11:08:09.699Z,25.77
2023-05-22T11:10:56.245Z,25.72
2023-05-22T11:13:29.352Z,25.83
2023-05-22T11:15:57.689Z,25.66
2023-05-22T11:18:28.407Z,25.92
2023-05-22T11:20:58.977Z,25.66
2023-05-22T11:23:27.889Z,25.91
2023-05-22T11:25:56.745Z,25.96
2023-05-22T11:28:26.558Z,26.05
2023-05-22T11:30:54.378Z,25.83
2023-05-22T11:33:21.214Z,25.91
2023-05-22T11:35:51.777Z,26.17
2023-05-22T11:38:19.405Z,26.27
2023-05-22T11:40:46.006Z,26.49
2023-05-22T11:43:12.616Z,26.50
2023-05-22T11:45:39.938Z,26.45
2023-05-22T11:48:09.089Z,26.63
2023-05-22T11:50:42.706Z,26.40
2023-05-22T11:53:09.867Z,25.79
2023-05-22T11:55:38.764Z,25.56
2023-05-22T11:58:07.604Z,25.63
2023-05-22T12:00:36.386Z,26.12
2023-05-22T12:03:11.837Z,26.32
2023-05-22T12:05:44.805Z,26.55
2023-05-22T12:08:16.531Z,26.65
2023-05-22T12:10:55.126Z,26.90
2023-05-22T12:13:26.952Z,27.05
2023-05-22T12:15:56.221Z,27.19
2023-05-22T12:18:23.002Z,26.95
2023-05-22T12:20:56.247Z,26.98
2023-05-22T12:23:26.968Z,27.01
2023-05-22T12:26:12.497Z,27.17
2023-05-22T12:28:41.504Z,27.29
2023-05-22T12:31:08.197Z,27.17
2023-05-22T12:33:34.804Z,27.30
2023-05-22T12:36:08.959Z,27.38
2023-05-22T12:38:41.441Z,27.61
2023-05-22T12:41:08.085Z,27.57
2023-05-22T12:43:37.201Z,27.45
2023-05-22T12:46:04.048Z,27.37
2023-05-22T12:48:30.729Z,27.09
2023-05-22T12:50:59.907Z,27.27
2023-05-22T12:53:26.554Z,26.99
2023-05-22T12:55:53.135Z,26.93
2023-05-22T12:58:19.719Z,27.25
2023-05-22T13:00:46.336Z,27.20
2023-05-22T13:33:27.390Z,27.28
2023-05-22T13:35:56.300Z,27.16
2023-05-22T13:38:25.401Z,27.16
2023-05-22T13:40:54.534Z,27.30
2023-05-22T13:43:21.158Z,27.18
2023-05-22T13:45:47.850Z,27.39
2023-05-22T13:48:16.996Z,27.55
2023-05-22T13:50:45.812Z,27.63
2023-05-22T13:53:24.311Z,27.71
2023-05-22T13:55:51.087Z,27.67
2023-05-22T13:58:17.678Z,27.75
2023-05-22T14:00:44.342Z,28.04
2023-05-22T14:03:17.315Z,28.07
2023-05-22T14:05:47.523Z,27.90
2023-05-22T14:08:14.162Z,27.90
2023-05-22T14:10:45.279Z,27.84
2023-05-22T14:13:11.901Z,27.74
2023-05-22T14:15:38.618Z,27.93
2023-05-22T14:18:07.563Z,27.78
2023-05-22T14:20:34.485Z,27.72
2023-05-22T14:23:05.930Z,27.61
2023-05-22T14:25:35.079Z,27.23
2023-05-22T14:28:01.805Z,26.92
2023-05-22T14:30:28.396Z,26.91
2023-05-22T14:32:55.038Z,26.75
2023-05-22T14:35:21.738Z,26.68
2023-05-22T14:37:50.846Z,26.70
2023-05-22T14:40:17.660Z,26.38
2023-05-22T14:42:44.896Z,26.25
2023-05-22T14:45:12.163Z,26.28
2023-05-22T14:47:40.631Z,26.18
2023-05-22T14:52:41.222Z,25.98
2023-05-22T14:55:10.780Z,25.98
2023-05-22T14:57:37.422Z,25.82
2023-05-22T15:00:08.765Z,25.86
2023-05-22T15:02:35.478Z,25.91
2023-05-22T15:05:02.313Z,25.74
2023-05-22T15:10:05.814Z,25.59
2023-05-22T15:12:32.632Z,25.38
2023-05-22T15:14:59.421Z,25.48
2023-05-22T15:17:26.078Z,25.53
2023-05-22T15:19:52.732Z,25.35
2023-05-22T15:22:23.162Z,25.20
2023-05-22T15:25:04.116Z,25.16
2023-05-22T15:27:34.959Z,25.20
2023-05-22T15:30:02.405Z,25.27
2023-05-22T15:32:31.557Z,25.34
2023-05-22T15:34:58.302Z,25.37
2023-05-22T15:37:24.943Z,25.46
2023-05-22T15:39:51.560Z,25.38
2023-05-22T15:42:18.270Z,25.54
2023-05-22T15:44:47.574Z,25.51
2023-05-22T15:47:14.850Z,25.43
2023-05-22T15:49:48.727Z,25.28
2023-05-22T15:52:15.929Z,25.10
2023-05-22T15:54:42.610Z,25.03
2023-05-22T15:57:09.354Z,25.15
2023-05-22T15:59:38.211Z,25.15
2023-05-22T16:02:07.346Z,25.12
2023-05-22T16:04:33.977Z,25.02
2023-05-22T16:07:02.840Z,24.95
2023-05-22T16:09:31.402Z,24.97
2023-05-22T16:12:02.110Z,24.93
2023-05-22T16:14:29.144Z,24.92
2023-05-22T16:16:59.094Z,24.96
2023-05-22T16:19:29.052Z,24.90
2023-05-22T16:21:58.607Z,24.89
2023-05-22T16:24:27.598Z,24.89
2023-05-22T16:26:56.434Z,24.86
2023-05-22T16:29:23.082Z,24.94
2023-05-22T16:31:52.416Z,24.98
2023-05-22T16:34:19.108Z,24.81
2023-05-22T16:36:49.223Z,24.81
2023-05-22T16:39:16.000Z,24.93
2023-05-22T16:41:44.807Z,25.07
2023-05-22T16:44:11.419Z,25.19
2023-05-22T16:46:38.055Z,25.12
2023-05-22T16:49:04.749Z,25.13
2023-05-22T16:51:33.698Z,25.00
2023-05-22T16:54:00.307Z,24.86
2023-05-22T16:56:34.157Z,24.84
2023-05-22T16:59:03.504Z,24.80
2023-05-22T17:01:32.322Z,24.79
2023-05-22T17:04:02.079Z,24.80
2023-05-22T17:06:29.566Z,24.92
2023-05-22T17:08:58.484Z,24.43
2023-05-22T17:11:26.103Z,24.32
2023-05-22T17:13:54.049Z,24.08
2023-05-22T17:16:23.249Z,23.75
2023-05-22T17:18:59.401Z,23.61
2023-05-22T17:21:29.589Z,23.35
2023-05-22T17:24:01.848Z,23.51
2023-05-22T17:30:17.621Z,22.93
2023-05-22T17:32:45.171Z,23.08
2023-05-22T17:35:16.503Z,23.02
2023-05-22T17:37:43.138Z,22.98
2023-05-22T17:40:10.319Z,23.35
2023-05-22T17:42:37.012Z,23.48
2023-05-22T17:45:03.850Z,23.61
2023-05-22T17:47:32.702Z,23.68
2023-05-22T17:49:59.428Z,23.52
2023-05-22T17:52:26.135Z,23.45
2023-05-22T17:54:52.985Z,23.46
2023-05-22T17:57:19.621Z,23.33
2023-05-22T17:59:46.189Z,23.32
2023-05-22T18:02:15.781Z,23.05
2023-05-22T18:04:44.724Z,22.97
2023-05-22T18:07:11.575Z,23.14
2023-05-22T18:09:40.731Z,23.21
2023-05-22T18:12:09.387Z,23.14
2023-05-22T18:14:39.569Z,22.89
2023-05-22T18:17:08.460Z,22.99
2023-05-22T18:19:37.865Z,22.85
2023-05-22T18:22:04.753Z,22.72
2023-05-22T18:24:36.456Z,22.60
2023-05-22T18:27:03.838Z,22.30
2023-05-22T18:29:30.683Z,22.32
2023-05-22T18:32:02.390Z,22.23
2023-05-22T18:34:32.286Z,22.13
2023-05-22T18:37:03.877Z,22.18
2023-05-22T18:39:30.581Z,22.18
2023-05-22T18:42:06.445Z,22.16
2023-05-22T18:44:38.133Z,22.17
2023-05-22T18:47:08.159Z,22.07
2023-05-22T18:49:37.269Z,21.93
2023-05-22T18:52:07.157Z,21.86
2023-05-22T18:54:36.816Z,21.72
2023-05-22T19:00:55.427Z,21.26
2023-05-22T19:03:25.123Z,21.25
2023-05-22T19:05:51.799Z,21.19
2023-05-22T19:08:26.512Z,21.06
2023-05-22T19:10:55.932Z,21.18
2023-05-22T19:13:22.476Z,21.15
2023-05-22T19:15:49.131Z,21.24
2023-05-22T19:18:15.959Z,21.15
2023-05-22T19:20:43.299Z,21.23
2023-05-22T19:23:13.755Z,21.11
2023-05-22T19:25:40.606Z,21.15
2023-05-22T19:28:09.381Z,20.79
2023-05-22T19:30:41.680Z,20.87
2023-05-22T19:33:11.247Z,20.94
2023-05-22T19:35:38.915Z,20.93
2023-05-22T19:38:08.540Z,20.90
2023-05-22T19:40:37.583Z,20.75
2023-05-22T19:43:06.959Z,20.73
2023-05-22T19:45:33.637Z,20.71
2023-05-22T19:48:00.527Z,20.51
2023-05-22T19:56:47.892Z,20.31
2023-05-22T19:59:14.618Z,20.17
2023-05-22T20:01:43.631Z,20.11
2023-05-22T20:04:13.371Z,19.96
2023-05-22T20:06:40.355Z,20.01
2023-05-22T20:09:06.913Z,19.99
2023-05-22T20:11:35.786Z,19.94
2023-05-22T20:14:03.397Z,19.94
2023-05-22T20:16:30.006Z,19.85
2023-05-22T20:18:56.754Z,19.72
2023-05-22T20:21:23.396Z,19.66
2023-05-22T20:23:52.902Z,19.50
2023-05-22T20:26:21.883Z,19.61
2023-05-22T20:28:48.489Z,19.30
2023-05-22T20:31:17.538Z,19.56
2023-05-22T20:33:46.904Z,19.68
2023-05-22T20:36:17.940Z,19.81
2023-05-22T20:38:46.670Z,19.70
2023-05-22T20:41:13.128Z,19.70
2023-05-22T20:43:43.280Z,19.64
2023-05-22T20:46:10.430Z,19.39
2023-05-22T20:48:38.089Z,19.35
2023-05-22T20:51:05.044Z,19.40
2023-05-22T20:53:33.985Z,19.49
2023-05-22T20:56:00.599Z,19.45
2023-05-22T20:58:27.392Z,19.45
2023-05-22T21:00:54.245Z,19.42
2023-05-22T21:03:21.518Z,19.32
2023-05-22T21:05:51.086Z,19.04
2023-05-22T21:08:20.508Z,18.88
2023-05-22T21:10:47.132Z,18.85
2023-05-22T21:13:20.031Z,18.87
2023-05-22T21:15:51.450Z,18.80
2023-05-22T21:18:20.390Z,18.68
2023-05-22T21:20:46.962Z,18.61
2023-05-22T21:23:21.965Z,18.58
2023-05-22T21:25:54.887Z,18.62
2023-05-22T21:28:24.254Z,18.54
2023-05-22T21:30:50.866Z,18.54
2023-05-22T21:33:17.454Z,18.60
2023-05-22T21:35:47.490Z,18.61
2023-05-22T21:38:14.109Z,18.18
2023-05-22T21:40:42.727Z,18.47
2023-05-22T21:43:09.519Z,18.60
2023-05-22T21:45:38.966Z,18.73
2023-05-22T21:48:08.005Z,18.71
2023-05-22T21:50:34.719Z,18.59
2023-05-22T21:53:04.078Z,18.36
2023-05-22T21:55:33.018Z,18.10
2023-05-22T21:57:59.616Z,17.99
2023-05-22T22:00:28.541Z,17.88
2023-05-22T22:02:57.395Z,18.09
2023-05-22T22:05:27.589Z,18.09
2023-05-22T22:07:54.264Z,18.11
2023-05-22T22:10:21.291Z,18.04
2023-05-22T22:12:48.105Z,17.87
2023-05-22T22:15:14.798Z,17.90
2023-05-22T22:17:41.425Z,17.81
2023-05-22T22:20:11.673Z,17.60
2023-05-22T22:22:40.099Z,17.65
2023-05-22T22:25:07.075Z,17.64
2023-05-22T22:27:33.674Z,17.59
2023-05-22T22:30:00.349Z,17.49
2023-05-22T22:32:26.987Z,17.54
2023-05-22T22:34:54.164Z,17.22
2023-05-22T22:37:23.564Z,17.27
2023-05-22T22:39:52.430Z,17.38
2023-05-22T22:42:18.869Z,17.31
2023-05-22T22:44:47.966Z,17.32
2023-05-22T22:47:14.555Z,17.36
2023-05-22T22:49:41.159Z,17.38
2023-05-22T22:52:10.376Z,17.39
2023-05-22T22:54:41.945Z,17.43
2023-05-22T22:57:13.566Z,17.30
2023-05-22T22:59:45.530Z,16.97
2023-05-22T23:02:12.129Z,16.97
2023-05-22T23:04:38.844Z,17.00
2023-05-22T23:07:06.200Z,16.73
2023-05-22T23:09:35.926Z,16.81
2023-05-22T23:12:03.029Z,16.85
2023-05-22T23:14:29.601Z,16.90
2023-05-22T23:16:56.586Z,16.55
2023-05-22T23:19:23.346Z,16.67
2023-05-22T23:21:50.207Z,16.94
2023-05-22T23:24:19.238Z,16.81
2023-05-22T23:26:45.862Z,16.88
2023-05-22T23:29:14.516Z,17.04
2023-05-22T23:31:41.140Z,17.04
2023-05-22T23:34:10.123Z,17.12
2023-05-22T23:36:36.914Z,17.01
2023-05-22T23:39:03.741Z,16.88
2023-05-22T23:41:30.369Z,17.00
2023-05-22T23:43:59.166Z,17.04
2023-05-22T23:46:26.159Z,17.04
2023-05-22T23:48:55.024Z,17.11
2023-05-22T23:51:21.543Z,17.12
2023-05-22T23:53:48.113Z,17.06
2023-05-22T23:56:14.726Z,17.08
2023-05-22T23:58:44.090Z,17.00
